ADDS METAR Data INFO
IDs: Format: Raw Decoded Include TAF

Data at: 0407 UTC 11 Dec 2017

KMRC 110355Z AUTO 22008KT 10SM CLR 04/M05 A3018 RMK A01
KMRC 110335Z AUTO 21008KT 10SM CLR 04/M05 A3017 RMK A01
KMRC 110315Z AUTO 21009KT 10SM CLR 04/M05 A3017 RMK A01
KMRC 110255Z AUTO 21009KT 10SM CLR 04/M05 A3017 RMK A01
KMRC 110235Z AUTO 21007KT 10SM CLR 04/M05 A3017 RMK A01
KMRC 110215Z AUTO 21007KT 10SM CLR 04/M05 A3017 RMK A01
KMRC 110155Z AUTO 21007KT 10SM CLR 04/M05 A3017 RMK A01
KMRC 110135Z AUTO 22006KT 10SM CLR 05/M05 A3017 RMK A01
KMRC 110115Z AUTO 22005KT 10SM CLR 05/M06 A3016 RMK A01
KMRC 110055Z AUTO 21007KT 10SM CLR 05/M06 A3015 RMK A01
KMRC 110035Z AUTO 21009KT 10SM CLR 05/M06 A3014 RMK A01
KMRC 110015Z AUTO 21008KT 10SM CLR 04/M06 A3014 RMK A01
KMRC 102355Z AUTO 22006KT 10SM CLR 05/M06 A3014 RMK A01
KMRC 102335Z AUTO 22007KT 10SM CLR 06/M06 A3013 RMK A01
KMRC 102315Z AUTO 21008KT 10SM CLR 06/M06 A3013 RMK A01
KMRC 102255Z AUTO 20008KT 10SM CLR 06/M06 A3012 RMK A01
KMRC 102235Z AUTO 21009G16KT 10SM CLR 07/M07 A3012 RMK A01
KMRC 102215Z AUTO 21010G17KT 10SM CLR 08/M07 A3012 RMK A01
KMRC 102155Z AUTO 20012G17KT 10SM CLR 09/M07 A3013 RMK A01
KMRC 102135Z AUTO 20013KT 10SM CLR 09/M07 A3013 RMK A01
KMRC 102115Z AUTO 21012G17KT 10SM CLR 09/M07 A3013 RMK A01
KMRC 102055Z AUTO 23011KT 10SM CLR 09/M07 A3014 RMK A01
KMRC 102035Z AUTO 21014KT 10SM CLR 09/M08 A3014 RMK A01
KMRC 102015Z AUTO 20010G17KT 10SM CLR 09/M07 A3015 RMK A01
KMRC 101955Z AUTO 24010KT 10SM CLR 09/M08 A3015 RMK A01
KMRC 101935Z AUTO 23010KT 10SM CLR 09/M08 A3015 RMK A01
KMRC 101915Z AUTO 21011KT 10SM CLR 09/M07 A3016 RMK A01
KMRC 101855Z AUTO 22007G15KT 10SM CLR 08/M07 A3017 RMK A01
KMRC 101835Z AUTO 23009G16KT 10SM CLR 08/M08 A3019 RMK A01
KMRC 101815Z AUTO 21010G16KT 10SM CLR 08/M07 A3020 RMK A01
KMRC 101755Z AUTO 25007G13KT 230V290 10SM CLR 07/M07 A3021 RMK A01
KMRC 101735Z AUTO 23010KT 10SM CLR 07/M06 A3021 RMK A01
KMRC 101715Z AUTO 22006G14KT 10SM CLR 06/M06 A3023 RMK A01
KMRC 101655Z AUTO 23009G14KT 10SM CLR 05/M05 A3024 RMK A01
KMRC 101635Z AUTO 20008KT 10SM CLR 05/M04 A3024 RMK A01
KMRC 101615Z AUTO 22008G14KT 10SM CLR 04/M05 A3025 RMK A01
KMRC 101555Z AUTO 22011KT 10SM CLR 03/M04 A3026 RMK A01
KMRC 101535Z AUTO 21009KT 10SM CLR 02/M04 A3027 RMK A01
KMRC 101515Z AUTO 22007KT 9SM CLR 01/M04 A3027 RMK A01
KMRC 101455Z AUTO 21007KT 8SM CLR 00/M04 A3027 RMK A01
KMRC 101435Z AUTO 00000KT 10SM CLR M02/M04 A3027 RMK A01
KMRC 101415Z AUTO 00000KT 10SM CLR M03/M05 A3027 RMK A01
KMRC 101355Z AUTO 00000KT 8SM CLR M05/M05 A3027 RMK A01
KMRC 101335Z AUTO 21003KT 10SM CLR M06/M06 A3027 RMK A01
KMRC 101315Z AUTO 00000KT 9SM CLR M06/M07 A3027 RMK A01
KMRC 101255Z AUTO 00000KT 9SM CLR M07/M07 A3026 RMK A01
KMRC 101235Z AUTO 00000KT 10SM CLR M07/M07 A3026 RMK A01
KMRC 101215Z AUTO 00000KT 10SM CLR M07/M07 A3026 RMK A01
KMRC 101155Z AUTO 00000KT 10SM CLR M07/M08 A3026 RMK A01
KMRC 101135Z AUTO 20003KT 10SM CLR M07/M07 A3025 RMK A01
KMRC 101115Z AUTO 00000KT 10SM CLR M07/M07 A3025 RMK A01
KMRC 101055Z AUTO 00000KT 10SM CLR M06/M06 A3025 RMK A01
KMRC 101035Z AUTO 00000KT 10SM CLR M07/M07 A3024 RMK A01
KMRC 101015Z AUTO 00000KT 10SM CLR M07/M08 A3024 RMK A01
KMRC 100955Z AUTO 00000KT 10SM CLR M07/M07 A3023 RMK A01
KMRC 100935Z AUTO 00000KT 10SM CLR M07/M08 A3023 RMK A01
KMRC 100915Z AUTO 00000KT 10SM CLR M07/M07 A3023 RMK A01
KMRC 100855Z AUTO 21003KT 10SM CLR M07/M07 A3023 RMK A01
KMRC 100835Z AUTO 00000KT 10SM CLR M06/M07 A3024 RMK A01
KMRC 100815Z AUTO 00000KT 10SM CLR M06/M07 A3024 RMK A01
KMRC 100755Z AUTO 00000KT 10SM CLR M06/M06 A3024 RMK A01
KMRC 100735Z AUTO 00000KT 10SM CLR M06/M06 A3023 RMK A01
KMRC 100715Z AUTO 00000KT 10SM CLR M06/M07 A3022 RMK A01
KMRC 100655Z AUTO 00000KT 10SM CLR M06/M06 A3022 RMK A01
KMRC 100635Z AUTO 22003KT 10SM CLR M05/M07 A3022 RMK A01
KMRC 100615Z AUTO 00000KT 10SM CLR M05/M06 A3022 RMK A01
KMRC 100555Z AUTO 00000KT 10SM CLR M05/M06 A3021 RMK A01
KMRC 100535Z AUTO 00000KT 10SM CLR M05/M06 A3021 RMK A01
KMRC 100515Z AUTO 21003KT 10SM CLR M05/M06 A3020 RMK A01
KMRC 100455Z AUTO 00000KT 10SM CLR M04/M06 A3020 RMK A01
KMRC 100435Z AUTO 00000KT 10SM CLR M03/M07 A3020 RMK A01
KMRC 100415Z AUTO 00000KT 10SM CLR M04/M07 A3020 RMK A01
KMRC 100355Z AUTO 00000KT 10SM CLR M03/M06 A3020 RMK A01
KMRC 100335Z AUTO 22003KT 10SM CLR M03/M07 A3019 RMK A01
KMRC 100315Z AUTO 00000KT 10SM CLR M02/M07 A3018 RMK A01
KMRC 100255Z AUTO 00000KT 10SM CLR M01/M07 A3018 RMK A01
KMRC 100235Z AUTO 00000KT 10SM FEW049 M01/M07 A3017 RMK A01
KMRC 100215Z AUTO 00000KT 10SM SCT048 M01/M07 A3017 RMK A01
KMRC 100155Z AUTO 00000KT 10SM FEW047 M00/M07 A3016 RMK A01
KMRC 100135Z AUTO 00000KT 10SM FEW046 M00/M07 A3016 RMK A01
KMRC 100115Z AUTO 00000KT 10SM FEW048 00/M08 A3016 RMK A01
KMRC 100055Z AUTO 00000KT 10SM SCT045 00/M08 A3015 RMK A01
KMRC 100035Z AUTO VRB04KT 10SM OVC044 01/M08 A3015 RMK A01
KMRC 100015Z AUTO VRB04KT 10SM OVC043 01/M08 A3014 RMK A01
KMRC 092355Z AUTO VRB05G11KT 10SM OVC043 01/M08 A3014 RMK A01
KMRC 092335Z AUTO VRB03KT 10SM OVC041 01/M08 A3013 RMK A01
KMRC 092315Z AUTO 32009G14KT 10SM OVC042 01/M07 A3011 RMK A01
KMRC 092255Z AUTO 29012G19KT 10SM FEW037 OVC045 02/M06 A3009 RMK A01
KMRC 092235Z AUTO 31009G16KT 280V340 10SM SCT037 OVC046 02/M05 A3007 RMK A01
KMRC 092215Z AUTO VRB05G14KT 10SM OVC045 03/M05 A3005 RMK A01
KMRC 092155Z AUTO 32008G15KT 300V360 10SM OVC047 03/M06 A3003 RMK A01
KMRC 092135Z AUTO 30010G15KT 270V330 10SM OVC047 03/M05 A3001 RMK A01
KMRC 092115Z AUTO 32007G14KT 10SM BKN041 OVC049 04/M05 A3000 RMK A01
KMRC 092055Z AUTO 30007G14KT 260V330 10SM BKN041 OVC048 04/M05 A2998 RMK A01
KMRC 092035Z AUTO 30007KT 10SM OVC041 04/M05 A2997 RMK A01
KMRC 092015Z AUTO 28007G12KT 10SM OVC039 04/M05 A2996 RMK A01
KMRC 091955Z AUTO 28007G15KT 10SM OVC038 04/M05 A2995 RMK A01
KMRC 091935Z AUTO VRB06G13KT 10SM OVC040 04/M05 A2994 RMK A01
KMRC 091915Z AUTO 28008G15KT 10SM OVC041 04/M06 A2992 RMK A01
KMRC 091855Z AUTO 29008KT 260V320 10SM OVC043 05/M06 A2992 RMK A01
KMRC 091835Z AUTO 29012G18KT 260V330 10SM BKN041 BKN070 BKN080 05/M06 A2992 RMK A01
KMRC 091815Z AUTO 9.04000009G16KT 230V310 10SM FEW039 BKN080 05/M06 A2991 RMK A01
KMRC 091755Z AUTO 25010G18KT 10SM BKN080 05/M08 A2990 RMK A01
KMRC 091735Z AUTO 23012G19KT 10SM FEW049 BKN080 04/M08 A2990 RMK A01
KMRC 091715Z AUTO 22010KT 10SM BKN049 OVC080 02/M09 A2992 RMK A01
KMRC 091655Z AUTO 23008KT 10SM OVC047 02/M09 A2994 RMK A01
KMRC 091635Z AUTO 24009G15KT 10SM OVC047 01/M09 A2995 RMK A01
KMRC 091615Z AUTO 24010G17KT 10SM BKN047 OVC055 01/M10 A2995 RMK A01